Time;durP1;ratioP1;P1;durP2;ratioP2;P2;SDS_P1;SDS_P2;PMS_P1;PMS_P2;Temp;Humidity;BMP_temperature;BMP_pressure;BME280_temperature;BME280_humidity;BME280_pressure;Samples;Min_cycle;Max_cycle;Signal;HPM_P1;HPM_P2
2021/10/22 00:01:43;;;;;;;18.77;11.07;;;15.50;92.60;;;;;;5016326;28;20033;-70
2021/10/22 00:04:08;;;;;;;13.00;9.95;;;15.50;92.50;;;;;;5016328;28;20071;-70
2021/10/22 00:06:34;;;;;;;16.80;10.38;;;15.50;92.50;;;;;;5016231;28;20033;-70
2021/10/22 00:09:00;;;;;;;18.20;10.05;;;15.50;92.40;;;;;;5016133;28;20022;-70
2021/10/22 00:11:26;;;;;;;14.77;10.65;;;15.50;92.40;;;;;;5016114;28;20026;-73
2021/10/22 00:13:52;;;;;;;16.85;11.30;;;15.50;92.40;;;;;;5015987;28;20152;-70
2021/10/22 00:16:18;;;;;;;17.88;10.82;;;15.50;92.40;;;;;;5014578;28;20088;-70
2021/10/22 00:18:44;;;;;;;16.27;10.43;;;15.50;92.40;;;;;;5015843;28;20084;-72
2021/10/22 00:21:09;;;;;;;18.20;9.88;;;15.50;92.40;;;;;;5015744;28;20041;-70
2021/10/22 00:23:35;;;;;;;14.52;10.32;;;15.50;92.30;;;;;;5015872;28;20390;-70
2021/10/22 00:26:02;;;;;;;13.60;10.20;;;15.50;92.30;;;;;;5015615;28;20382;-73
2021/10/22 00:28:28;;;;;;;22.45;10.98;;;15.50;92.30;;;;;;5015627;28;20363;-70
2021/10/22 00:30:53;;;;;;;16.98;10.35;;;15.50;92.40;;;;;;5015575;28;20058;-70
2021/10/22 00:33:19;;;;;;;15.48;9.52;;;15.50;92.50;;;;;;5015288;28;20076;-70
2021/10/22 00:35:45;;;;;;;14.98;10.18;;;15.50;92.60;;;;;;5015632;28;20064;-71
2021/10/22 00:38:10;;;;;;;11.98;9.77;;;15.50;92.50;;;;;;5015333;28;20022;-70
2021/10/22 00:40:36;;;;;;;12.88;10.48;;;15.50;92.50;;;;;;5015459;28;20036;-70
2021/10/22 00:43:03;;;;;;;16.98;10.93;;;15.50;92.50;;;;;;5015568;28;20433;-70
2021/10/22 00:45:29;;;;;;;18.38;10.13;;;15.50;92.50;;;;;;5015211;28;20382;-71
2021/10/22 00:47:55;;;;;;;15.38;9.68;;;15.50;92.40;;;;;;5015486;28;20470;-71
2021/10/22 00:50:20;;;;;;;13.65;10.30;;;15.50;92.30;;;;;;5015275;28;20069;-71
2021/10/22 00:52:47;;;;;;;13.45;9.60;;;15.60;92.20;;;;;;5015157;28;20030;-71
2021/10/22 00:55:14;;;;;;;15.90;9.73;;;15.60;92.20;;;;;;5015402;28;20501;-71
2021/10/22 00:57:40;;;;;;;14.73;9.77;;;15.60;92.10;;;;;;5014372;28;20026;-71
2021/10/22 01:00:07;;;;;;;17.70;9.55;;;15.50;92.10;;;;;;5012301;28;20046;-71
2021/10/22 01:02:36;;;;;;;15.40;8.63;;;15.50;92.20;;;;;;5012473;28;20160;-71
2021/10/22 01:05:09;;;;;;;14.93;8.48;;;15.50;92.20;;;;;;5013781;28;20065;-71
2021/10/22 01:07:38;;;;;;;11.52;8.38;;;15.60;92.20;;;;;;5014936;28;20022;-71
2021/10/22 01:10:05;;;;;;;16.00;9.18;;;15.50;92.20;;;;;;5014944;28;20018;-71
2021/10/22 01:12:31;;;;;;;16.27;9.40;;;15.50;92.50;;;;;;5014822;28;20033;-70
2021/10/22 01:15:01;;;;;;;15.70;10.63;;;15.50;92.70;;;;;;5015241;28;20478;-71
2021/10/22 01:17:39;;;;;;;12.13;9.65;;;15.50;92.80;;;;;;5014383;28;20026;-71
2021/10/22 01:20:11;;;;;;;16.02;10.85;;;15.50;92.80;;;;;;5014546;28;20049;-72
2021/10/22 01:22:38;;;;;;;18.48;11.63;;;15.50;92.80;;;;;;5014759;28;20030;-71
2021/10/22 01:25:06;;;;;;;12.82;10.07;;;15.50;92.80;;;;;;5014812;28;20052;-71
2021/10/22 01:27:32;;;;;;;12.55;9.73;;;15.50;92.80;;;;;;5014588;28;20073;-71
2021/10/22 01:29:58;;;;;;;16.25;10.25;;;15.50;92.70;;;;;;5014665;28;20034;-71
2021/10/22 01:32:23;;;;;;;12.13;10.60;;;15.50;92.70;;;;;;5013128;28;20406;-71
2021/10/22 01:34:49;;;;;;;19.83;10.57;;;15.50;92.70;;;;;;5014466;28;20034;-71
2021/10/22 01:37:15;;;;;;;13.18;10.40;;;15.40;92.80;;;;;;5014553;28;20026;-71
2021/10/22 01:39:40;;;;;;;20.40;10.80;;;15.50;92.80;;;;;;5014299;28;20144;-72
2021/10/22 01:42:07;;;;;;;10.98;9.70;;;15.50;93.00;;;;;;5014357;28;20394;-72
2021/10/22 01:44:33;;;;;;;15.80;10.98;;;15.50;93.00;;;;;;5014431;28;20014;-71
2021/10/22 01:46:59;;;;;;;16.17;10.63;;;15.50;93.00;;;;;;5014141;28;20107;-71
2021/10/22 01:49:25;;;;;;;15.90;10.65;;;15.50;93.00;;;;;;5014105;28;20033;-71
2021/10/22 01:51:51;;;;;;;14.45;9.57;;;15.50;93.00;;;;;;5014184;28;20049;-71
2021/10/22 01:54:17;;;;;;;12.38;9.20;;;15.50;92.90;;;;;;5014311;28;20470;-72
2021/10/22 01:56:43;;;;;;;10.68;9.50;;;15.50;92.90;;;;;;5013839;28;20449;-71
2021/10/22 01:59:09;;;;;;;14.75;9.05;;;15.50;92.90;;;;;;5013966;28;20064;-71
2021/10/22 02:01:34;;;;;;;17.38;10.18;;;15.50;92.90;;;;;;5014068;28;20026;-71
2021/10/22 02:04:00;;;;;;;14.63;9.50;;;15.50;92.80;;;;;;5014140;28;20037;-71
2021/10/22 02:06:26;;;;;;;11.00;8.85;;;15.50;92.90;;;;;;5013963;28;20034;-71
2021/10/22 02:08:51;;;;;;;17.33;9.48;;;15.50;92.90;;;;;;5014070;28;20030;-71
2021/10/22 02:11:17;;;;;;;17.45;9.20;;;15.50;92.90;;;;;;5013827;28;20034;-71
2021/10/22 02:13:43;;;;;;;15.00;8.63;;;15.50;92.80;;;;;;5013848;28;20034;-70
2021/10/22 02:16:09;;;;;;;14.98;8.77;;;15.50;92.70;;;;;;5013834;28;20034;-71
2021/10/22 02:18:35;;;;;;;17.83;8.70;;;15.50;92.60;;;;;;5013798;28;20104;-70
2021/10/22 02:21:01;;;;;;;14.85;8.65;;;15.50;92.80;;;;;;5013427;28;20473;-71
2021/10/22 02:23:26;;;;;;;14.88;9.57;;;15.50;92.80;;;;;;5013741;28;20080;-70
2021/10/22 02:25:52;;;;;;;20.65;10.32;;;15.50;93.00;;;;;;5013682;28;20104;-71
2021/10/22 02:28:18;;;;;;;15.65;9.90;;;15.50;93.50;;;;;;5013752;28;20030;-71
2021/10/22 02:30:43;;;;;;;17.20;9.80;;;15.50;93.60;;;;;;5013951;28;20478;-71
2021/10/22 02:33:10;;;;;;;15.45;9.85;;;15.50;93.50;;;;;;5011843;28;20053;-70
2021/10/22 02:35:36;;;;;;;18.80;8.85;;;15.50;93.50;;;;;;5013418;28;20038;-71
2021/10/22 02:38:02;;;;;;;12.90;9.02;;;15.40;93.40;;;;;;5013541;28;20026;-71
2021/10/22 02:40:28;;;;;;;11.93;7.18;;;15.50;93.30;;;;;;5013322;28;20046;-71
2021/10/22 02:42:54;;;;;;;15.63;7.88;;;15.50;93.20;;;;;;5013418;28;20496;-70
2021/10/22 02:45:20;;;;;;;16.70;7.70;;;15.50;93.00;;;;;;5013387;28;20084;-70
2021/10/22 02:47:46;;;;;;;14.55;7.00;;;15.50;92.90;;;;;;5013292;28;20053;-71
2021/10/22 02:50:12;;;;;;;14.55;7.93;;;15.50;92.90;;;;;;5013278;28;20426;-70
2021/10/22 02:52:38;;;;;;;12.77;7.40;;;15.50;92.80;;;;;;5013388;28;20035;-70
2021/10/22 02:55:05;;;;;;;12.23;8.52;;;15.50;92.90;;;;;;5013355;28;20471;-71
2021/10/22 02:57:31;;;;;;;15.18;8.23;;;15.50;92.90;;;;;;5013281;28;20092;-71
2021/10/22 02:59:57;;;;;;;11.40;7.13;;;15.50;92.90;;;;;;5013329;28;20374;-71
2021/10/22 03:02:22;;;;;;;21.00;7.97;;;15.50;92.80;;;;;;5013398;28;20034;-71
2021/10/22 03:04:48;;;;;;;15.00;7.90;;;15.50;92.80;;;;;;5013255;28;20049;-71
2021/10/22 03:07:14;;;;;;;12.13;7.50;;;15.50;92.80;;;;;;5013945;28;20022;-71
2021/10/22 03:09:40;;;;;;;19.58;7.90;;;15.40;92.80;;;;;;5017217;28;20383;-71
2021/10/22 03:12:06;;;;;;;16.42;7.82;;;15.40;92.80;;;;;;5017506;28;20444;-71
2021/10/22 03:14:33;;;;;;;9.93;7.30;;;15.40;92.70;;;;;;5017024;28;20373;-71
2021/10/22 03:16:58;;;;;;;14.02;7.38;;;15.50;92.80;;;;;;5017131;28;20061;-71
2021/10/22 03:19:24;;;;;;;17.23;7.43;;;15.40;92.70;;;;;;5017176;28;20057;-71
2021/10/22 03:21:50;;;;;;;14.95;7.13;;;15.40;92.70;;;;;;5017029;28;20037;-72
2021/10/22 03:24:16;;;;;;;11.82;7.18;;;15.40;92.70;;;;;;5016783;28;20022;-70
2021/10/22 03:26:42;;;;;;;12.90;7.07;;;15.40;92.70;;;;;;5017100;28;20030;-71
2021/10/22 03:29:08;;;;;;;11.38;7.47;;;15.40;92.70;;;;;;5016833;28;20432;-71
2021/10/22 03:31:35;;;;;;;15.10;7.72;;;15.40;92.70;;;;;;5016461;28;20042;-71
2021/10/22 03:34:01;;;;;;;17.80;7.32;;;15.40;92.80;;;;;;5015427;28;20025;-71
2021/10/22 03:36:27;;;;;;;16.65;7.13;;;15.40;92.80;;;;;;5015609;28;20033;-71
2021/10/22 03:38:53;;;;;;;15.35;7.40;;;15.40;92.80;;;;;;5015461;28;20022;-71
2021/10/22 03:41:19;;;;;;;14.60;7.38;;;15.40;92.80;;;;;;5015391;28;20119;-71
2021/10/22 03:43:44;;;;;;;11.73;7.07;;;15.40;92.80;;;;;;5015527;28;20026;-71
2021/10/22 03:46:10;;;;;;;11.15;7.03;;;15.40;92.90;;;;;;5015284;28;20033;-71
2021/10/22 03:48:36;;;;;;;15.25;7.82;;;15.40;93.00;;;;;;5015232;28;20041;-72
2021/10/22 03:51:01;;;;;;;13.77;7.47;;;15.40;93.00;;;;;;5015205;28;20018;-72
2021/10/22 03:53:27;;;;;;;14.23;7.40;;;15.30;92.90;;;;;;5013902;28;20084;-72
2021/10/22 03:55:53;;;;;;;13.48;7.32;;;15.30;93.00;;;;;;5015312;28;20028;-71
2021/10/22 03:58:19;;;;;;;11.25;6.90;;;15.30;92.90;;;;;;5015323;28;20052;-71
2021/10/22 04:00:46;;;;;;;14.57;7.28;;;15.30;92.90;;;;;;5015008;28;20100;-71
2021/10/22 04:03:12;;;;;;;11.65;7.30;;;15.30;92.90;;;;;;5015113;28;20076;-71
2021/10/22 04:05:38;;;;;;;12.18;6.97;;;15.30;92.80;;;;;;5014751;28;20030;-71
2021/10/22 04:08:04;;;;;;;12.45;7.22;;;15.30;92.80;;;;;;5015127;28;20109;-71
2021/10/22 04:10:30;;;;;;;12.63;7.55;;;15.30;92.80;;;;;;5015031;28;20037;-71
2021/10/22 04:12:55;;;;;;;11.38;7.50;;;15.20;92.80;;;;;;5014906;28;20025;-71
2021/10/22 04:15:21;;;;;;;13.88;8.10;;;15.30;92.80;;;;;;5014659;28;20030;-71
2021/10/22 04:17:47;;;;;;;16.08;8.35;;;15.30;92.90;;;;;;5014771;28;20103;-71
2021/10/22 04:20:12;;;;;;;13.85;7.43;;;15.20;92.90;;;;;;5014648;28;20183;-71
2021/10/22 04:22:39;;;;;;;14.35;7.82;;;15.20;92.90;;;;;;5014739;28;20060;-71
2021/10/22 04:25:06;;;;;;;12.00;7.70;;;15.20;92.90;;;;;;5014605;28;20022;-71
2021/10/22 04:27:32;;;;;;;9.35;7.57;;;15.20;92.90;;;;;;5014690;28;20029;-71
2021/10/22 04:30:05;;;;;;;12.20;7.72;;;15.20;92.90;;;;;;5014783;28;20072;-71
2021/10/22 04:32:31;;;;;;;13.32;7.53;;;15.20;93.00;;;;;;4973801;28;1196685;-70
2021/10/22 04:34:57;;;;;;;13.48;8.10;;;15.20;93.00;;;;;;5015490;28;20087;-71
2021/10/22 04:42:42;;;;;;;11.02;7.93;;;15.20;93.00;;;;;;5015794;28;20109;-71
2021/10/22 04:45:09;;;;;;;14.02;8.35;;;15.30;93.10;;;;;;5015431;28;20506;-71
2021/10/22 04:47:36;;;;;;;13.52;8.68;;;15.20;93.00;;;;;;5015527;28;20024;-71
2021/10/22 04:50:03;;;;;;;12.38;8.02;;;15.20;93.10;;;;;;5014188;28;20430;-71
2021/10/22 04:52:28;;;;;;;12.50;7.78;;;15.20;93.10;;;;;;5015379;28;20412;-71
2021/10/22 04:54:54;;;;;;;15.93;8.65;;;15.20;93.10;;;;;;5015260;28;20018;-70
2021/10/22 04:57:20;;;;;;;15.48;9.20;;;15.20;93.10;;;;;;5015393;28;20014;-71
2021/10/22 04:59:46;;;;;;;15.07;8.23;;;15.20;93.10;;;;;;5015037;28;20037;-71
2021/10/22 05:02:11;;;;;;;12.93;8.57;;;15.20;93.10;;;;;;5015334;28;20112;-71
2021/10/22 05:04:37;;;;;;;10.45;8.00;;;15.20;93.10;;;;;;5015051;28;20018;-71
2021/10/22 05:07:03;;;;;;;12.65;7.90;;;15.20;93.40;;;;;;5015203;28;20022;-71
2021/10/22 05:09:28;;;;;;;11.23;8.20;;;15.20;93.10;;;;;;5015166;28;20530;-71
2021/10/22 05:11:54;;;;;;;16.67;7.70;;;15.20;93.10;;;;;;5015085;28;20441;-71
2021/10/22 05:14:20;;;;;;;10.68;7.93;;;15.20;93.10;;;;;;5015067;28;20034;-72
2021/10/22 05:16:45;;;;;;;12.13;7.70;;;15.20;93.10;;;;;;5014921;28;20033;-71
2021/10/22 05:19:11;;;;;;;16.63;7.80;;;15.20;93.10;;;;;;5014728;28;20030;-72
2021/10/22 05:21:37;;;;;;;15.15;8.32;;;15.20;93.10;;;;;;5014761;28;20367;-71
2021/10/22 05:24:03;;;;;;;15.23;8.55;;;15.20;93.10;;;;;;5014796;28;20018;-71
2021/10/22 05:26:28;;;;;;;15.68;8.43;;;15.20;93.10;;;;;;5014718;28;20033;-71
2021/10/22 05:28:54;;;;;;;11.82;8.13;;;15.20;93.10;;;;;;5014784;28;20578;-71
2021/10/22 05:31:20;;;;;;;13.13;8.48;;;15.20;93.20;;;;;;5015380;28;20038;-71
2021/10/22 05:33:45;;;;;;;15.65;8.00;;;15.20;93.20;;;;;;5014829;28;20056;-71
2021/10/22 05:36:11;;;;;;;11.57;8.60;;;15.20;93.20;;;;;;5014596;28;20033;-71
2021/10/22 05:38:37;;;;;;;13.45;8.85;;;15.20;93.10;;;;;;5014599;28;20503;-71
2021/10/22 05:41:02;;;;;;;13.77;8.68;;;15.20;93.10;;;;;;5014335;28;20110;-71
2021/10/22 05:43:28;;;;;;;16.50;9.73;;;15.20;93.10;;;;;;5014604;28;20026;-72
2021/10/22 05:45:54;;;;;;;11.50;8.68;;;15.20;93.10;;;;;;5014404;28;20030;-71
2021/10/22 05:48:19;;;;;;;13.20;8.60;;;15.20;93.20;;;;;;5014308;28;20033;-71
2021/10/22 05:50:45;;;;;;;12.18;8.98;;;15.20;93.20;;;;;;5014077;28;20481;-71
2021/10/22 05:53:11;;;;;;;13.35;9.05;;;15.20;93.10;;;;;;5014175;28;20022;-71
2021/10/22 05:55:37;;;;;;;11.70;8.75;;;15.20;93.10;;;;;;5014387;28;20026;-70
2021/10/22 05:58:02;;;;;;;11.02;8.98;;;15.20;93.10;;;;;;5014064;28;20026;-71
2021/10/22 06:00:28;;;;;;;13.63;8.88;;;15.20;93.00;;;;;;5014103;28;20041;-71
2021/10/22 06:02:55;;;;;;;14.93;9.90;;;15.20;93.10;;;;;;5014428;28;20026;-71
2021/10/22 06:05:21;;;;;;;21.85;9.50;;;15.20;93.10;;;;;;5014200;28;20055;-71
2021/10/22 06:07:46;;;;;;;13.85;9.45;;;15.20;93.10;;;;;;5014187;28;20018;-70
2021/10/22 06:10:12;;;;;;;14.60;9.38;;;15.20;93.10;;;;;;5013949;28;20161;-70
2021/10/22 06:12:38;;;;;;;11.80;8.85;;;15.20;93.10;;;;;;5014110;28;20018;-71
2021/10/22 06:15:04;;;;;;;15.43;9.43;;;15.20;93.00;;;;;;5014026;28;20026;-70
2021/10/22 06:17:30;;;;;;;13.75;9.00;;;15.10;93.00;;;;;;5013873;28;20018;-70
2021/10/22 06:19:59;;;;;;;14.20;9.23;;;15.20;93.00;;;;;;5013637;28;20425;-70
2021/10/22 06:25:09;;;;;;;11.52;7.72;;;15.10;93.00;;;;;;5013626;28;20036;-70
2021/10/22 06:27:35;;;;;;;20.00;9.80;;;15.10;92.90;;;;;;5013642;28;20022;-71
2021/10/22 06:30:00;;;;;;;13.23;8.27;;;15.10;92.90;;;;;;5013662;28;20029;-70
2021/10/22 06:32:27;;;;;;;11.05;8.43;;;15.10;92.90;;;;;;5013367;28;20092;-71
2021/10/22 06:34:54;;;;;;;16.65;8.90;;;15.10;92.90;;;;;;5013657;28;20080;-71
2021/10/22 06:37:19;;;;;;;13.82;9.13;;;15.10;92.90;;;;;;5013665;28;20072;-71
2021/10/22 06:39:47;;;;;;;10.75;7.80;;;15.10;92.90;;;;;;5013238;28;20022;-70
2021/10/22 06:42:12;;;;;;;14.80;9.15;;;15.20;93.00;;;;;;5013289;28;20128;-70
2021/10/22 06:44:38;;;;;;;15.63;8.88;;;15.20;92.90;;;;;;5013415;28;20097;-71
2021/10/22 06:47:04;;;;;;;16.45;9.98;;;15.20;93.00;;;;;;5013385;28;20390;-71
2021/10/22 06:49:29;;;;;;;14.00;8.77;;;15.20;93.00;;;;;;5013466;28;20022;-70
2021/10/22 06:51:55;;;;;;;17.20;8.65;;;15.20;93.00;;;;;;5013559;28;20475;-70
2021/10/22 06:54:21;;;;;;;17.23;8.93;;;15.20;93.00;;;;;;5013370;28;20383;-71
2021/10/22 06:56:47;;;;;;;17.08;9.70;;;15.30;93.20;;;;;;5013263;28;20022;-71
2021/10/22 06:59:12;;;;;;;23.15;9.73;;;15.30;92.90;;;;;;5013172;28;20105;-71
2021/10/22 07:01:38;;;;;;;19.30;10.10;;;15.40;92.90;;;;;;5013318;28;20067;-70
2021/10/22 07:04:04;;;;;;;22.05;9.93;;;15.40;92.90;;;;;;5013302;28;20025;-71
2021/10/22 07:09:14;;;;;;;21.77;9.82;;;15.50;93.00;;;;;;5013429;28;20040;-71
2021/10/22 07:11:40;;;;;;;17.88;9.77;;;15.50;93.20;;;;;;5013345;28;20026;-71
2021/10/22 07:14:07;;;;;;;16.52;10.27;;;15.50;93.00;;;;;;5013208;28;20030;-70
2021/10/22 07:16:33;;;;;;;16.55;10.15;;;15.50;92.80;;;;;;5013370;28;20045;-70
2021/10/22 07:18:59;;;;;;;18.00;11.27;;;15.60;92.80;;;;;;5013139;28;20471;-71
2021/10/22 07:21:25;;;;;;;25.08;11.35;;;15.60;92.90;;;;;;5013109;28;20034;-68
2021/10/22 07:23:51;;;;;;;14.90;9.73;;;15.70;92.70;;;;;;5012793;28;20025;-69
2021/10/22 07:26:19;;;;;;;15.95;10.98;;;15.70;92.60;;;;;;5013087;28;20050;-69
2021/10/22 07:28:46;;;;;;;20.38;10.90;;;15.70;92.50;;;;;;5013050;28;20062;-69
2021/10/22 07:31:12;;;;;;;18.77;10.80;;;15.80;92.50;;;;;;5012635;28;20061;-69
2021/10/22 07:33:39;;;;;;;20.90;10.80;;;15.80;92.40;;;;;;5012210;28;20037;-68
2021/10/22 07:36:07;;;;;;;18.10;10.30;;;15.80;92.50;;;;;;5011426;28;20025;-70
2021/10/22 07:38:33;;;;;;;20.48;10.38;;;15.90;92.40;;;;;;5011359;28;20030;-70
2021/10/22 07:40:59;;;;;;;17.02;9.30;;;15.90;92.60;;;;;;5011307;28;20040;-68
2021/10/22 07:43:25;;;;;;;16.80;8.07;;;15.90;92.50;;;;;;5011192;28;20018;-69
2021/10/22 07:45:51;;;;;;;19.38;10.35;;;16.00;92.50;;;;;;5026567;28;20477;-70
2021/10/22 07:48:16;;;;;;;12.45;8.13;;;16.00;92.40;;;;;;5011040;28;20026;-68
2021/10/22 07:50:42;;;;;;;15.93;8.60;;;16.00;92.30;;;;;;5011912;28;20446;-68
2021/10/22 07:53:08;;;;;;;21.65;10.43;;;16.00;92.30;;;;;;5013280;28;20040;-68
2021/10/22 07:55:35;;;;;;;18.38;9.88;;;16.00;92.30;;;;;;5016377;28;20022;-69
2021/10/22 07:58:02;;;;;;;16.25;8.05;;;16.00;92.30;;;;;;5016327;28;20116;-68
2021/10/22 08:00:28;;;;;;;17.10;8.55;;;16.00;92.30;;;;;;5016085;28;20033;-68
2021/10/22 08:02:54;;;;;;;14.85;6.90;;;16.00;92.20;;;;;;5016346;28;20109;-68
2021/10/22 08:05:21;;;;;;;18.27;8.82;;;16.10;92.20;;;;;;5016207;28;20157;-69
2021/10/22 08:07:48;;;;;;;17.02;8.55;;;16.10;92.20;;;;;;5016084;28;20021;-69
2021/10/22 08:10:14;;;;;;;17.65;9.18;;;16.10;92.30;;;;;;5016577;28;20386;-68
2021/10/22 08:12:39;;;;;;;15.68;8.40;;;16.10;92.40;;;;;;5016363;28;20039;-67
2021/10/22 08:15:06;;;;;;;15.32;8.55;;;16.10;92.50;;;;;;5015929;28;20390;-69
2021/10/22 08:17:32;;;;;;;17.02;8.45;;;16.20;92.40;;;;;;5016123;28;20022;-68
2021/10/22 08:20:03;;;;;;;19.67;8.20;;;16.20;92.30;;;;;;5015812;28;20038;-68
2021/10/22 08:22:32;;;;;;;17.30;8.43;;;16.20;92.20;;;;;;5015679;28;20042;-69
2021/10/22 08:25:05;;;;;;;17.20;7.40;;;16.30;92.20;;;;;;5015734;28;20430;-68
2021/10/22 08:27:35;;;;;;;13.77;7.70;;;16.30;92.20;;;;;;5014580;28;20034;-69
2021/10/22 08:30:07;;;;;;;12.43;8.38;;;16.30;92.10;;;;;;5012961;28;20113;-68
2021/10/22 08:32:34;;;;;;;19.88;9.13;;;16.30;92.00;;;;;;5013035;28;20441;-68
2021/10/22 08:35:05;;;;;;;13.93;9.10;;;16.40;92.00;;;;;;5014894;28;20104;-68
2021/10/22 08:37:35;;;;;;;20.08;9.43;;;16.40;92.00;;;;;;5015561;28;20022;-67
2021/10/22 08:40:00;;;;;;;19.95;8.70;;;16.40;92.00;;;;;;5014780;28;20033;-68
2021/10/22 08:42:26;;;;;;;17.85;10.30;;;16.50;91.90;;;;;;5012499;28;20026;-68
2021/10/22 08:44:53;;;;;;;17.17;9.52;;;16.50;92.00;;;;;;5012397;28;20112;-67
2021/10/22 08:47:21;;;;;;;18.20;11.98;;;16.50;92.00;;;;;;5015099;28;20022;-67
2021/10/22 08:49:47;;;;;;;22.23;13.00;;;16.60;92.00;;;;;;5015289;28;20030;-67
2021/10/22 08:52:13;;;;;;;23.95;12.65;;;16.70;92.10;;;;;;5015368;28;20390;-67
2021/10/22 08:54:39;;;;;;;20.92;13.63;;;16.70;92.10;;;;;;5015404;28;20022;-67
2021/10/22 08:57:07;;;;;;;21.70;12.50;;;16.80;92.10;;;;;;5015161;28;20037;-67
2021/10/22 08:59:33;;;;;;;20.65;11.43;;;16.80;92.20;;;;;;5015062;28;20109;-68
2021/10/22 09:02:20;;;;;;;15.75;11.35;;;16.90;92.10;;;;;;5014713;28;20026;-68
2021/10/22 09:04:47;;;;;;;14.10;10.50;;;16.90;92.10;;;;;;5013270;28;20029;-68
2021/10/22 09:07:21;;;;;;;17.75;11.23;;;16.90;92.00;;;;;;5014909;28;20088;-70
2021/10/22 09:10:11;;;;;;;20.25;11.38;;;16.90;92.00;;;;;;5013876;28;20059;-68
2021/10/22 09:12:51;;;;;;;15.23;11.15;;;17.00;92.00;;;;;;5014601;28;20402;-68
2021/10/22 09:15:24;;;;;;;20.20;12.93;;;17.00;92.00;;;;;;5014640;28;20026;-69
2021/10/22 09:17:51;;;;;;;16.00;10.27;;;17.00;91.90;;;;;;5014552;28;20022;-68
2021/10/22 09:20:18;;;;;;;21.25;10.13;;;17.00;91.80;;;;;;5014628;28;20498;-68
2021/10/22 09:22:59;;;;;;;18.30;10.40;;;17.10;91.90;;;;;;5014927;28;20065;-68
2021/10/22 09:25:29;;;;;;;18.55;9.98;;;17.10;91.90;;;;;;5014996;28;20425;-68
2021/10/22 09:28:01;;;;;;;18.67;9.63;;;17.10;91.70;;;;;;5014649;28;20105;-68
2021/10/22 09:30:30;;;;;;;;;;;17.10;91.60;;;;;;5015008;28;20367;-68
2021/10/22 09:33:00;;;;;;;13.43;8.85;;;17.10;91.50;;;;;;5014321;28;19921;-68
2021/10/22 09:35:36;;;;;;;14.57;8.95;;;17.20;91.40;;;;;;5014543;28;20084;-69
2021/10/22 09:38:19;;;;;;;14.98;9.25;;;17.20;91.50;;;;;;5014758;28;20018;-68
2021/10/22 09:40:53;;;;;;;15.68;10.00;;;17.20;91.50;;;;;;5014531;28;20042;-68
2021/10/22 09:43:46;;;;;;;16.85;8.95;;;17.20;91.50;;;;;;5014346;28;20033;-68
2021/10/22 09:46:14;;;;;;;14.43;8.27;;;17.30;91.50;;;;;;5015079;28;20041;-68
2021/10/22 09:48:43;;;;;;;13.25;7.75;;;17.30;91.40;;;;;;5014325;28;20018;-68
2021/10/22 09:51:26;;;;;;;17.38;9.02;;;17.30;91.30;;;;;;5014409;28;20034;-68
2021/10/22 09:53:54;;;;;;;19.60;8.63;;;17.30;91.20;;;;;;5014293;28;20540;-68
2021/10/22 09:56:23;;;;;;;15.40;8.75;;;17.40;91.20;;;;;;5014377;28;20036;-68
2021/10/22 09:59:25;;;;;;;14.73;7.15;;;17.30;91.20;;;;;;5014130;28;20022;-69
2021/10/22 10:01:55;;;;;;;16.95;8.10;;;17.30;91.10;;;;;;5014302;28;20036;-69
2021/10/22 10:04:23;;;;;;;14.93;8.77;;;17.30;91.10;;;;;;5014334;28;20022;-68
2021/10/22 10:06:50;;;;;;;19.80;8.57;;;17.30;91.20;;;;;;5014326;28;20034;-68
2021/10/22 10:09:20;;;;;;;18.17;7.95;;;17.30;91.80;;;;;;5013768;28;20041;-68
2021/10/22 10:11:47;;;;;;;17.05;7.20;;;17.30;91.40;;;;;;5013857;28;20033;-68
2021/10/22 10:14:14;;;;;;;16.00;7.32;;;17.20;90.90;;;;;;5014206;28;20370;-68
2021/10/22 10:16:48;;;;;;;15.95;6.80;;;17.20;90.60;;;;;;5013600;28;20058;-68
2021/10/22 10:19:13;;;;;;;16.13;6.82;;;17.20;90.60;;;;;;5013665;28;20028;-67
2021/10/22 10:21:44;;;;;;;18.67;7.90;;;17.20;90.40;;;;;;5013880;28;20029;-68
2021/10/22 10:24:11;;;;;;;15.13;8.18;;;17.20;90.40;;;;;;5012793;28;20374;-68
2021/10/22 10:26:37;;;;;;;17.30;7.40;;;17.20;90.40;;;;;;5013592;28;20026;-68
2021/10/22 10:29:06;;;;;;;22.58;7.95;;;17.20;90.40;;;;;;5013690;28;20398;-68
2021/10/22 10:31:38;;;;;;;12.95;7.75;;;17.20;90.50;;;;;;5013881;28;20072;-69
2021/10/22 10:34:31;;;;;;;18.88;7.55;;;17.30;90.50;;;;;;5013695;28;20104;-68
2021/10/22 10:37:05;;;;;;;13.75;7.57;;;17.30;90.30;;;;;;5013752;28;20113;-68
2021/10/22 10:39:43;;;;;;;14.88;7.72;;;17.30;90.30;;;;;;5013531;28;20025;-68
2021/10/22 10:42:47;;;;;;;17.40;9.35;;;17.40;90.40;;;;;;5013612;28;20074;-68
2021/10/22 10:45:37;;;;;;;17.70;8.15;;;17.40;90.70;;;;;;5013854;28;20026;-68
2021/10/22 10:48:20;;;;;;;17.48;8.55;;;17.50;90.60;;;;;;5013582;28;20033;-67
2021/10/22 10:51:04;;;;;;;17.35;9.20;;;17.50;90.40;;;;;;5013701;28;20101;-68
2021/10/22 10:53:38;;;;;;;17.25;8.40;;;17.50;90.40;;;;;;5013681;28;20469;-68
2021/10/22 10:56:07;;;;;;;17.85;8.15;;;17.50;90.10;;;;;;5013385;28;20022;-68
2021/10/22 10:58:44;;;;;;;15.85;8.02;;;17.50;90.20;;;;;;5011512;28;20038;-68
2021/10/22 11:01:32;;;;;;;15.30;8.20;;;17.50;90.10;;;;;;5010307;28;20413;-68
2021/10/22 11:03:58;;;;;;;19.42;8.32;;;17.50;90.00;;;;;;5012150;28;20380;-68
2021/10/22 11:06:42;;;;;;;18.25;7.93;;;17.50;90.00;;;;;;5013176;28;20037;-68
2021/10/22 11:09:08;;;;;;;18.33;8.18;;;17.50;89.80;;;;;;5013131;28;20030;-68
2021/10/22 11:11:37;;;;;;;15.98;7.88;;;17.60;90.00;;;;;;5013125;28;20513;-68
2021/10/22 11:14:07;;;;;;;14.57;8.18;;;17.60;90.00;;;;;;5013203;28;20495;-68
2021/10/22 11:16:53;;;;;;;16.20;8.40;;;17.60;90.00;;;;;;5013174;28;20038;-68
2021/10/22 11:19:19;;;;;;;11.48;7.20;;;17.60;90.20;;;;;;5012840;28;20100;-68
2021/10/22 11:21:51;;;;;;;17.00;7.95;;;17.60;90.10;;;;;;5011848;28;20121;-68
2021/10/22 11:24:21;;;;;;;14.80;7.88;;;17.70;89.30;;;;;;5010757;28;20018;-67
2021/10/22 11:27:01;;;;;;;15.73;8.20;;;17.70;89.30;;;;;;5010282;28;20104;-68
2021/10/22 11:29:29;;;;;;;14.10;8.05;;;17.70;89.30;;;;;;5013772;28;20041;-68
2021/10/22 11:32:03;;;;;;;12.90;7.85;;;17.70;89.50;;;;;;5016744;28;20045;-68
2021/10/22 11:34:37;;;;;;;17.77;8.55;;;17.70;89.30;;;;;;5016964;28;20145;-68
2021/10/22 11:37:09;;;;;;;19.20;8.40;;;17.80;89.70;;;;;;5016615;28;20037;-67
2021/10/22 11:39:40;;;;;;;12.77;8.50;;;17.90;89.80;;;;;;5016120;28;20157;-68
2021/10/22 11:42:15;;;;;;;16.63;8.48;;;18.00;89.80;;;;;;5016441;28;20037;-68
2021/10/22 11:44:43;;;;;;;16.23;8.40;;;18.10;89.60;;;;;;5016807;28;20030;-68
2021/10/22 11:47:10;;;;;;;18.85;8.48;;;18.10;89.00;;;;;;5016683;28;20026;-68
2021/10/22 11:49:37;;;;;;;17.88;7.97;;;18.20;90.00;;;;;;5016457;28;20053;-68
2021/10/22 11:52:09;;;;;;;18.80;8.27;;;18.30;89.10;;;;;;5016437;28;20478;-68
2021/10/22 11:54:40;;;;;;;17.55;8.98;;;18.40;88.90;;;;;;5016339;28;20497;-68
2021/10/22 11:57:13;;;;;;;17.77;8.63;;;18.60;88.40;;;;;;5016472;28;20018;-68
2021/10/22 11:59:52;;;;;;;16.13;7.93;;;18.80;87.70;;;;;;5016244;28;20041;-67
2021/10/22 12:02:22;;;;;;;14.27;8.57;;;18.90;86.80;;;;;;5016426;28;20398;-68
2021/10/22 12:05:08;;;;;;;15.43;8.40;;;19.00;85.70;;;;;;5016220;28;20022;-68
2021/10/22 12:07:44;;;;;;;13.65;7.63;;;19.10;84.80;;;;;;5016352;28;20026;-68
2021/10/22 12:10:13;;;;;;;16.70;8.40;;;19.20;83.70;;;;;;5015761;28;20041;-67
2021/10/22 12:12:47;;;;;;;19.02;8.15;;;19.30;83.50;;;;;;5016189;28;20038;-68
2021/10/22 12:15:27;;;;;;;15.20;8.65;;;19.30;81.80;;;;;;5016273;28;20041;-67
2021/10/22 12:17:55;;;;;;;16.77;8.10;;;19.30;82.40;;;;;;5015893;28;20376;-68
2021/10/22 12:20:21;;;;;;;14.80;7.35;;;19.30;81.50;;;;;;5015927;28;20041;-68
2021/10/22 12:22:56;;;;;;;12.85;6.90;;;19.30;81.70;;;;;;5015849;28;20478;-68
2021/10/22 12:25:23;;;;;;;16.92;8.13;;;19.40;81.60;;;;;;5015956;28;20109;-69
2021/10/22 12:27:59;;;;;;;16.13;7.82;;;19.40;80.90;;;;;;5015892;28;20386;-68
2021/10/22 12:30:30;;;;;;;20.05;7.60;;;19.40;80.60;;;;;;5015984;28;20037;-69
2021/10/22 12:33:07;;;;;;;15.07;8.15;;;19.40;79.90;;;;;;5015744;28;20042;-70
2021/10/22 12:35:41;;;;;;;16.77;8.13;;;19.50;80.10;;;;;;5015816;28;20104;-68
2021/10/22 12:38:09;;;;;;;23.63;7.15;;;19.40;79.20;;;;;;5015502;28;20025;-69
2021/10/22 12:40:43;;;;;;;12.52;7.85;;;19.40;79.60;;;;;;5015252;28;20457;-68
2021/10/22 12:43:34;;;;;;;13.18;7.85;;;19.40;78.40;;;;;;5015466;28;20022;-68
2021/10/22 12:46:13;;;;;;;12.63;7.40;;;19.40;78.90;;;;;;5015505;28;20392;-68
2021/10/22 12:48:47;;;;;;;11.23;7.78;;;19.40;78.80;;;;;;5014364;28;20397;-68
2021/10/22 12:51:25;;;;;;;14.02;7.40;;;19.40;78.50;;;;;;5015263;28;20084;-68
2021/10/22 12:53:58;;;;;;;14.75;7.47;;;19.30;78.30;;;;;;5015602;28;20505;-68